Time;durP1;ratioP1;P1;durP2;ratioP2;P2;SDS_P1;SDS_P2;PMS_P1;PMS_P2;Temp;Humidity;BMP_temperature;BMP_pressure;BME280_temperature;BME280_humidity;BME280_pressure;Samples;Min_cycle;Max_cycle;Signal;HPM_P1;HPM_P2
2022/03/30 00:01:49;;;;;;;29.25;16.00;;;;;;;7.83;100.00;95509.50;4998981;28;20497;-70
2022/03/30 00:04:14;;;;;;;30.98;16.15;;;;;;;7.99;100.00;95511.22;4999063;28;20449;-70
2022/03/30 00:06:40;;;;;;;34.25;16.55;;;;;;;8.00;100.00;95502.16;5000683;28;20042;-69
2022/03/30 00:09:05;;;;;;;29.73;16.05;;;;;;;7.96;100.00;95494.94;4998570;28;20045;-70
2022/03/30 00:11:31;;;;;;;30.08;15.95;;;;;;;7.86;100.00;95494.84;4997443;28;20046;-70
2022/03/30 00:13:57;;;;;;;34.90;17.38;;;;;;;7.96;100.00;95495.75;4998700;28;20430;-69
2022/03/30 00:16:24;;;;;;;31.27;16.85;;;;;;;7.88;100.00;95496.22;4999455;28;20062;-69
2022/03/30 00:18:49;;;;;;;30.45;16.10;;;;;;;7.63;100.00;95498.69;4983263;28;20444;-70
2022/03/30 00:21:15;;;;;;;29.08;16.38;;;;;;;7.66;100.00;95492.84;4999518;28;20788;-69
2022/03/30 00:23:40;;;;;;;31.30;16.95;;;;;;;7.86;100.00;95495.69;4998393;28;20113;-71
2022/03/30 00:26:06;;;;;;;29.63;16.50;;;;;;;7.92;100.00;95499.16;4995361;28;20036;-69
2022/03/30 00:28:31;;;;;;;28.92;16.17;;;;;;;7.95;100.00;95491.47;4998238;28;20361;-70
2022/03/30 00:30:57;;;;;;;30.52;16.10;;;;;;;7.89;100.00;95484.50;4997934;28;20445;-69
2022/03/30 00:33:23;;;;;;;30.50;16.33;;;;;;;7.93;100.00;95477.59;4998113;28;20362;-69
2022/03/30 00:35:49;;;;;;;30.60;16.95;;;;;;;7.79;100.00;95476.44;5000128;28;20038;-70
2022/03/30 00:38:14;;;;;;;31.30;17.27;;;;;;;7.79;100.00;95468.47;4997134;28;20048;-69
2022/03/30 00:40:40;;;;;;;32.58;17.38;;;;;;;7.70;100.00;95472.63;4998666;28;20045;-69
2022/03/30 00:43:05;;;;;;;30.27;15.32;;;;;;;7.65;100.00;95470.72;4995137;28;20374;-70
2022/03/30 00:45:31;;;;;;;42.40;17.15;;;;;;;7.68;100.00;95464.09;4996122;28;20038;-69
2022/03/30 00:47:56;;;;;;;34.40;17.55;;;;;;;7.56;100.00;95458.16;4997810;28;20404;-69
2022/03/30 00:50:23;;;;;;;32.33;17.02;;;;;;;7.39;100.00;95463.56;4998470;28;20042;-70
2022/03/30 00:52:50;;;;;;;32.70;17.17;;;;;;;7.38;100.00;95460.09;4999238;28;20038;-71
2022/03/30 00:55:17;;;;;;;33.50;16.35;;;;;;;7.34;100.00;95461.66;4996376;28;20088;-70
2022/03/30 00:57:44;;;;;;;33.70;16.77;;;;;;;7.10;100.00;95457.72;4997402;28;20371;-70
2022/03/30 01:00:12;;;;;;;34.28;18.33;;;;;;;7.07;100.00;95463.50;4997395;28;20042;-70
2022/03/30 01:02:40;;;;;;;35.75;17.90;;;;;;;7.15;100.00;95461.19;4999299;28;20045;-70
2022/03/30 01:05:06;;;;;;;31.90;15.95;;;;;;;7.06;100.00;95452.06;4996373;28;20828;-69
2022/03/30 01:07:32;;;;;;;33.53;17.15;;;;;;;6.97;100.00;95451.72;4998389;28;20088;-70
2022/03/30 01:09:58;;;;;;;33.05;17.15;;;;;;;7.03;100.00;95441.94;4995381;28;20184;-70
2022/03/30 01:12:25;;;;;;;33.53;17.27;;;;;;;6.83;100.00;95439.84;4996895;28;20037;-69
2022/03/30 01:14:50;;;;;;;34.05;16.88;;;;;;;6.71;100.00;95439.19;4995867;28;20331;-70
2022/03/30 01:17:16;;;;;;;31.92;16.33;;;;;;;6.50;100.00;95440.00;4999381;28;20312;-69
2022/03/30 01:19:41;;;;;;;30.60;17.73;;;;;;;6.55;100.00;95434.75;4997401;28;20041;-70
2022/03/30 01:22:07;;;;;;;29.27;16.40;;;;;;;6.57;100.00;95427.34;4997730;28;20041;-69
2022/03/30 01:24:35;;;;;;;34.22;18.02;;;;;;;6.37;100.00;95426.03;4998496;28;20038;-70
2022/03/30 01:27:01;;;;;;;32.15;16.83;;;;;;;6.15;100.00;95419.91;4998239;28;20092;-69
2022/03/30 01:32:26;;;;;;;32.80;16.70;;;;;;;6.33;100.00;95408.97;4996126;28;20045;-69
2022/03/30 01:34:53;;;;;;;34.53;17.08;;;;;;;6.27;100.00;95406.50;5000458;28;20464;-70
2022/03/30 01:37:19;;;;;;;34.70;16.65;;;;;;;6.26;100.00;95399.59;4999631;28;20037;-70
2022/03/30 01:39:45;;;;;;;30.17;16.00;;;;;;;6.24;100.00;95386.56;4998371;28;20038;-70
2022/03/30 01:42:11;;;;;;;32.05;16.55;;;;;;;6.20;100.00;95400.56;4995648;28;20104;-69
2022/03/30 01:44:38;;;;;;;35.38;16.38;;;;;;;6.11;100.00;95395.69;4995503;28;20126;-69
2022/03/30 01:47:04;;;;;;;36.00;16.67;;;;;;;6.23;100.00;95392.91;4999096;28;20033;-69
2022/03/30 01:49:29;;;;;;;32.42;17.80;;;;;;;6.27;100.00;95387.91;4997046;28;20091;-71
2022/03/30 01:51:56;;;;;;;31.52;16.45;;;;;;;6.18;100.00;95386.72;4997986;28;20070;-69
2022/03/30 01:54:25;;;;;;;30.42;16.63;;;;;;;6.14;100.00;95386.41;4996616;28;20046;-69
2022/03/30 01:56:52;;;;;;;30.88;16.55;;;;;;;6.09;100.00;95381.84;4997164;28;20482;-69
2022/03/30 01:59:18;;;;;;;28.85;13.48;;;;;;;6.06;100.00;95379.66;4998267;28;20068;-69
2022/03/30 02:01:44;;;;;;;29.52;16.08;;;;;;;6.06;100.00;95381.50;4996901;28;20042;-70
2022/03/30 02:04:10;;;;;;;31.75;15.98;;;;;;;6.22;100.00;95371.88;4998106;28;20046;-70
2022/03/30 02:06:37;;;;;;;33.33;14.90;;;;;;;6.14;100.00;95373.91;4998481;28;20038;-69
2022/03/30 02:09:04;;;;;;;34.38;16.58;;;;;;;5.87;100.00;95381.78;4997873;28;20476;-69
2022/03/30 02:11:30;;;;;;;31.65;15.52;;;;;;;6.04;100.00;95383.63;4997296;28;20034;-69
2022/03/30 02:13:56;;;;;;;34.95;16.92;;;;;;;6.02;100.00;95383.06;4997653;28;20538;-70
2022/03/30 02:16:22;;;;;;;33.05;16.10;;;;;;;5.99;100.00;95367.63;4980954;28;20033;-70
2022/03/30 02:18:47;;;;;;;30.73;16.27;;;;;;;6.30;100.00;95364.31;4997039;28;20044;-70
2022/03/30 02:21:15;;;;;;;31.45;15.38;;;;;;;6.49;100.00;95377.28;5000083;28;20038;-70
2022/03/30 02:23:42;;;;;;;33.35;15.38;;;;;;;6.54;100.00;95370.16;4983277;28;20049;-69
2022/03/30 02:26:08;;;;;;;29.83;15.98;;;;;;;6.63;100.00;95373.97;4998207;28;20042;-70
2022/03/30 02:28:34;;;;;;;30.98;16.10;;;;;;;6.74;100.00;95369.56;4995902;28;20058;-70
2022/03/30 02:31:00;;;;;;;29.80;15.85;;;;;;;6.76;100.00;95377.28;4997920;28;20172;-70
2022/03/30 02:33:26;;;;;;;37.20;17.88;;;;;;;6.51;100.00;95372.50;5001083;28;20512;-70
2022/03/30 02:35:52;;;;;;;33.88;17.92;;;;;;;6.66;100.00;95375.34;5002106;28;20071;-70
2022/03/30 02:38:19;;;;;;;30.00;16.67;;;;;;;6.65;100.00;95360.44;4984867;28;20448;-70
2022/03/30 02:40:44;;;;;;;29.45;15.73;;;;;;;6.36;100.00;95362.50;5001961;28;20049;-70
2022/03/30 02:43:10;;;;;;;27.83;14.63;;;;;;;5.99;100.00;95357.81;5001507;28;20126;-70
2022/03/30 02:45:36;;;;;;;29.15;15.90;;;;;;;5.96;100.00;95360.16;5001651;28;20042;-70
2022/03/30 02:48:17;;;;;;;26.40;15.45;;;;;;;5.78;100.00;95359.38;4999436;28;20454;-69
2022/03/30 02:50:45;;;;;;;31.58;15.82;;;;;;;5.65;100.00;95361.56;5001255;28;20040;-70
2022/03/30 02:53:11;;;;;;;33.03;16.13;;;;;;;5.82;100.00;95357.81;5000931;28;20037;-70
2022/03/30 02:55:37;;;;;;;32.33;15.32;;;;;;;5.67;100.00;95364.75;4999854;28;20049;-70
2022/03/30 02:58:04;;;;;;;32.00;16.45;;;;;;;5.74;100.00;95355.56;4999532;28;20511;-70
2022/03/30 03:00:29;;;;;;;27.52;15.00;;;;;;;5.64;100.00;95355.44;4999847;28;20061;-70
2022/03/30 03:02:56;;;;;;;33.33;17.02;;;;;;;5.78;100.00;95354.06;4999837;28;20148;-69
2022/03/30 03:05:21;;;;;;;32.88;15.93;;;;;;;5.69;100.00;95357.38;5000746;28;20042;-69
2022/03/30 03:07:47;;;;;;;36.15;16.48;;;;;;;5.55;100.00;95354.25;4985231;28;20400;-69
2022/03/30 03:10:13;;;;;;;32.20;16.77;;;;;;;5.76;100.00;95350.84;4998541;28;20038;-70
2022/03/30 03:12:38;;;;;;;32.53;16.13;;;;;;;5.59;100.00;95347.41;5001157;28;20060;-69
2022/03/30 03:15:04;;;;;;;34.05;15.93;;;;;;;5.61;100.00;95349.84;4999720;28;20041;-69
2022/03/30 03:17:29;;;;;;;38.63;16.77;;;;;;;5.57;100.00;95347.66;5002474;28;20037;-70
2022/03/30 03:19:55;;;;;;;34.03;16.30;;;;;;;5.57;100.00;95347.66;4996546;28;20053;-69
2022/03/30 03:22:20;;;;;;;30.13;15.82;;;;;;;5.64;100.00;95339.50;4999224;28;20140;-69
2022/03/30 03:24:46;;;;;;;29.75;16.27;;;;;;;5.63;100.00;95342.41;5000585;28;20096;-69
2022/03/30 03:27:12;;;;;;;29.30;16.17;;;;;;;5.54;100.00;95334.88;5000019;28;20544;-69
2022/03/30 03:29:38;;;;;;;33.60;16.95;;;;;;;5.64;100.00;95341.38;4998190;28;20045;-69
2022/03/30 03:32:04;;;;;;;29.52;16.35;;;;;;;5.74;100.00;95331.69;5000441;28;20042;-69
2022/03/30 03:34:29;;;;;;;30.75;16.00;;;;;;;5.72;100.00;95339.09;5001695;28;20489;-70
2022/03/30 03:36:54;;;;;;;28.98;15.73;;;;;;;5.44;100.00;95334.72;5001582;28;20034;-69
2022/03/30 03:39:20;;;;;;;31.25;16.48;;;;;;;5.27;100.00;95333.94;4999830;28;20161;-69
2022/03/30 03:41:45;;;;;;;30.85;17.33;;;;;;;5.24;100.00;95335.22;4973781;28;20076;-69
2022/03/30 03:44:11;;;;;;;39.10;16.63;;;;;;;5.28;100.00;95336.31;4998298;28;20515;-70
2022/03/30 03:46:36;;;;;;;31.73;16.75;;;;;;;5.47;100.00;95325.47;4999928;28;20046;-69
2022/03/30 03:49:02;;;;;;;32.83;16.92;;;;;;;5.39;100.00;95325.88;4997390;28;20053;-69
2022/03/30 03:51:28;;;;;;;28.77;16.30;;;;;;;5.22;100.00;95321.41;5000069;28;20045;-69
2022/03/30 03:53:54;;;;;;;35.80;17.27;;;;;;;5.31;100.00;95321.81;5001009;28;20061;-70
2022/03/30 03:56:20;;;;;;;33.33;17.63;;;;;;;5.26;100.00;95321.72;5000105;28;20121;-70
2022/03/30 03:58:49;;;;;;;32.58;15.70;;;;;;;5.12;100.00;95320.44;5001903;28;20042;-70
2022/03/30 04:01:15;;;;;;;33.70;17.00;;;;;;;5.19;100.00;95319.22;4999565;28;20045;-70
2022/03/30 04:03:42;;;;;;;31.77;16.23;;;;;;;5.17;100.00;95321.31;5001351;28;20038;-69
2022/03/30 04:06:08;;;;;;;32.35;16.23;;;;;;;5.26;100.00;95322.50;5000528;28;20046;-69
2022/03/30 04:08:34;;;;;;;29.25;15.07;;;;;;;5.12;100.00;95313.28;5001689;28;20045;-69
2022/03/30 04:11:00;;;;;;;33.17;16.73;;;;;;;5.19;100.00;95318.41;4998605;28;20093;-70
2022/03/30 04:13:25;;;;;;;27.90;14.25;;;;;;;5.23;100.00;95314.25;4999242;28;20097;-69
2022/03/30 04:15:51;;;;;;;32.10;16.27;;;;;;;5.22;100.00;95313.44;5001968;28;20052;-71
2022/03/30 04:18:17;;;;;;;29.10;15.90;;;;;;;5.02;100.00;95305.16;4999087;28;20065;-70
2022/03/30 04:20:43;;;;;;;30.15;16.15;;;;;;;4.99;100.00;95305.66;4998615;28;20049;-69
2022/03/30 04:23:09;;;;;;;30.92;15.85;;;;;;;5.04;100.00;95303.06;4982629;28;20037;-69
2022/03/30 04:25:35;;;;;;;28.75;15.52;;;;;;;4.98;100.00;95294.25;5000990;28;20124;-69
2022/03/30 04:28:00;;;;;;;33.90;15.98;;;;;;;5.04;100.00;95295.13;4999272;28;20504;-70
2022/03/30 04:30:26;;;;;;;35.97;16.02;;;;;;;5.01;100.00;95290.31;4998008;28;20152;-69
2022/03/30 04:32:52;;;;;;;35.67;15.63;;;;;;;5.02;100.00;95289.25;4999458;28;20053;-70
2022/03/30 04:35:22;;;;;;;29.45;14.88;;;;;;;4.95;100.00;95293.91;4999206;28;20038;-69
2022/03/30 04:37:47;;;;;;;34.78;15.93;;;;;;;5.06;100.00;95294.88;4998508;28;20056;-69
2022/03/30 04:40:13;;;;;;;29.92;16.55;;;;;;;5.13;100.00;95293.66;4997377;28;20045;-69
2022/03/30 04:42:38;;;;;;;35.05;15.73;;;;;;;5.19;100.00;95295.34;4998856;28;20041;-70
2022/03/30 04:45:04;;;;;;;31.20;16.42;;;;;;;5.21;100.00;95295.94;4996218;28;20029;-69
2022/03/30 04:47:32;;;;;;;32.40;15.95;;;;;;;5.07;100.00;95284.03;4999978;28;20500;-69
2022/03/30 04:49:57;;;;;;;30.05;15.40;;;;;;;5.02;100.00;95284.75;5000564;28;20092;-69
2022/03/30 04:52:23;;;;;;;26.35;14.43;;;;;;;4.68;100.00;95288.44;4999876;28;20038;-70
2022/03/30 04:54:49;;;;;;;30.77;16.08;;;;;;;4.69;100.00;95296.16;4999121;28;20069;-70
2022/03/30 04:57:14;;;;;;;31.65;16.42;;;;;;;4.90;100.00;95289.34;4998477;28;20113;-69
2022/03/30 04:59:40;;;;;;;33.00;17.00;;;;;;;5.02;100.00;95290.06;4997048;28;20026;-69
2022/03/30 05:02:05;;;;;;;30.95;15.10;;;;;;;4.93;100.00;95275.59;5000591;28;20042;-69
2022/03/30 05:04:32;;;;;;;38.15;15.88;;;;;;;4.89;100.00;95281.63;4997764;28;20029;-69
2022/03/30 05:06:58;;;;;;;29.00;15.00;;;;;;;4.95;100.00;95283.31;5002643;28;20424;-70
2022/03/30 05:09:23;;;;;;;34.92;17.23;;;;;;;4.96;100.00;95279.63;4983013;28;20036;-69
2022/03/30 05:11:50;;;;;;;27.70;15.23;;;;;;;5.02;100.00;95289.25;4998567;28;20176;-70
2022/03/30 05:14:16;;;;;;;30.17;14.48;;;;;;;4.90;100.00;95280.56;5000449;28;20400;-70
2022/03/30 05:16:41;;;;;;;33.22;16.27;;;;;;;5.03;100.00;95277.59;4996278;28;20079;-69
2022/03/30 05:19:06;;;;;;;29.40;15.02;;;;;;;4.95;100.00;95273.50;4995845;28;20046;-69
2022/03/30 05:21:32;;;;;;;30.67;15.35;;;;;;;4.95;100.00;95272.72;5000755;28;20091;-69
2022/03/30 05:23:57;;;;;;;35.08;15.45;;;;;;;4.94;100.00;95271.09;4982179;28;20509;-69
2022/03/30 05:26:23;;;;;;;31.60;15.30;;;;;;;4.84;100.00;95270.97;4997398;28;20442;-69
2022/03/30 05:28:48;;;;;;;25.27;13.70;;;;;;;4.64;100.00;95258.97;4997370;28;20575;-70
2022/03/30 05:31:14;;;;;;;25.27;13.23;;;;;;;4.55;100.00;95259.59;4996118;28;20046;-70
2022/03/30 05:33:39;;;;;;;28.33;14.38;;;;;;;4.80;100.00;95269.81;4997061;28;20659;-70
2022/03/30 05:36:07;;;;;;;35.55;14.85;;;;;;;4.79;100.00;95273.50;4997762;28;20390;-70
2022/03/30 05:38:32;;;;;;;30.63;15.15;;;;;;;4.72;100.00;95273.66;4982487;28;20528;-70
2022/03/30 05:40:58;;;;;;;30.90;14.68;;;;;;;4.70;100.00;95270.47;5000942;28;20047;-69
2022/03/30 05:43:25;;;;;;;35.30;15.15;;;;;;;4.68;100.00;95273.34;4995856;28;20520;-70
2022/03/30 05:45:50;;;;;;;31.13;15.68;;;;;;;4.69;100.00;95279.47;4997883;28;20046;-70
2022/03/30 05:48:19;;;;;;;29.15;14.32;;;;;;;4.77;100.00;95270.31;4997753;28;20392;-70
2022/03/30 05:50:45;;;;;;;25.67;14.07;;;;;;;4.75;100.00;95278.50;4981888;28;20048;-69
2022/03/30 05:53:11;;;;;;;26.70;14.05;;;;;;;4.65;100.00;95273.81;4998080;28;20392;-70
2022/03/30 05:55:37;;;;;;;25.95;13.63;;;;;;;4.63;100.00;95273.25;4999051;28;20038;-69
2022/03/30 05:58:03;;;;;;;29.73;16.20;;;;;;;4.53;100.00;95281.03;4985895;28;20069;-70
2022/03/30 06:00:30;;;;;;;31.15;16.48;;;;;;;4.69;100.00;95274.97;4994927;28;20056;-70
2022/03/30 06:02:55;;;;;;;36.85;16.75;;;;;;;4.72;100.00;95278.97;4998400;28;20070;-70
2022/03/30 06:05:21;;;;;;;31.75;16.35;;;;;;;5.04;100.00;95289.81;4995533;28;20231;-69
2022/03/30 06:07:46;;;;;;;31.45;15.68;;;;;;;5.20;100.00;95278.38;5001910;28;20106;-70
2022/03/30 06:10:12;;;;;;;26.13;15.20;;;;;;;5.27;100.00;95286.19;4997621;28;20536;-71
2022/03/30 06:12:38;;;;;;;30.80;15.38;;;;;;;5.02;100.00;95283.97;5001146;28;20046;-69
2022/03/30 06:15:04;;;;;;;34.38;16.85;;;;;;;4.97;100.00;95287.31;5000173;28;20527;-71
2022/03/30 06:17:30;;;;;;;32.17;15.27;;;;;;;4.97;100.00;95286.53;5002502;28;20522;-70
2022/03/30 06:19:59;;;;;;;29.35;15.30;;;;;;;5.09;100.00;95283.78;5000118;28;20034;-69
2022/03/30 06:22:29;;;;;;;33.28;16.05;;;;;;;5.13;100.00;95280.41;5003211;28;20044;-70
2022/03/30 06:24:55;;;;;;;29.80;15.90;;;;;;;5.22;100.00;95297.53;4985626;28;20044;-69
2022/03/30 06:27:22;;;;;;;27.67;14.40;;;;;;;5.18;100.00;95292.94;4999246;28;20296;-70
2022/03/30 06:29:47;;;;;;;34.85;16.30;;;;;;;5.25;100.00;95294.38;4999542;28;20333;-70
2022/03/30 06:32:13;;;;;;;31.27;15.45;;;;;;;5.34;100.00;95291.31;4984003;28;20095;-69
2022/03/30 06:34:40;;;;;;;33.38;16.38;;;;;;;5.41;100.00;95297.25;5001420;28;20503;-70
2022/03/30 06:37:06;;;;;;;30.67;16.10;;;;;;;5.45;100.00;95298.41;5001607;28;20519;-70
2022/03/30 06:39:33;;;;;;;27.48;15.50;;;;;;;5.47;100.00;95290.97;5000836;28;20037;-69
2022/03/30 06:41:59;;;;;;;31.52;15.00;;;;;;;5.52;100.00;95296.34;5001801;28;20121;-69
2022/03/30 06:44:25;;;;;;;29.33;14.55;;;;;;;5.58;100.00;95287.41;4999962;28;20046;-70
2022/03/30 06:46:51;;;;;;;25.98;14.27;;;;;;;5.66;100.00;95291.50;5000605;28;20038;-69
2022/03/30 06:49:16;;;;;;;25.77;13.90;;;;;;;5.79;100.00;95289.28;4999287;28;20041;-71
2022/03/30 06:51:41;;;;;;;25.17;13.05;;;;;;;5.62;100.00;95287.75;5000663;28;20084;-69
2022/03/30 06:54:07;;;;;;;30.85;13.93;;;;;;;5.57;100.00;95291.91;5000862;28;20140;-70
2022/03/30 06:56:33;;;;;;;25.83;14.25;;;;;;;5.64;100.00;95289.09;5001361;28;20382;-70
2022/03/30 06:58:59;;;;;;;28.15;13.73;;;;;;;5.73;100.00;95284.16;5001701;28;20037;-69
2022/03/30 07:01:24;;;;;;;25.23;13.82;;;;;;;5.95;100.00;95287.66;4979688;28;20465;-69
2022/03/30 07:03:52;;;;;;;28.33;13.35;;;;;;;5.99;100.00;95277.31;5003387;28;20037;-69
2022/03/30 07:06:18;;;;;;;27.25;13.43;;;;;;;6.03;100.00;95291.72;5001358;28;20029;-70
2022/03/30 07:11:27;;;;;;;27.85;13.90;;;;;;;5.98;100.00;95297.75;5001374;28;20042;-70
2022/03/30 07:13:56;;;;;;;23.80;13.02;;;;;;;5.99;100.00;95283.47;5004579;28;20053;-69
2022/03/30 07:16:23;;;;;;;24.50;13.25;;;;;;;5.94;100.00;95286.06;4987416;28;20153;-69
2022/03/30 07:18:49;;;;;;;28.65;13.35;;;;;;;6.20;100.00;95281.81;4998511;28;20084;-70
2022/03/30 07:21:14;;;;;;;26.05;13.02;;;;;;;6.33;100.00;95281.44;5005179;28;20045;-69
2022/03/30 07:23:40;;;;;;;28.73;13.48;;;;;;;6.39;100.00;95284.97;5004404;28;20381;-69
2022/03/30 07:26:06;;;;;;;21.23;12.25;;;;;;;6.45;100.00;95285.78;4998986;28;20041;-69
2022/03/30 07:28:32;;;;;;;24.63;13.43;;;;;;;6.68;100.00;95277.50;4999672;28;20050;-70
2022/03/30 07:30:57;;;;;;;24.70;13.15;;;;;;;6.58;100.00;95269.44;5000134;28;20548;-70
2022/03/30 07:33:23;;;;;;;25.65;12.52;;;;;;;6.49;100.00;95265.66;5004088;28;20041;-69
2022/03/30 07:35:50;;;;;;;23.50;13.63;;;;;;;6.35;100.00;95270.56;5001565;28;20658;-68
2022/03/30 07:38:17;;;;;;;24.50;12.45;;;;;;;6.50;100.00;95272.56;5001425;28;20041;-69
2022/03/30 07:40:47;;;;;;;25.55;12.13;;;;;;;6.68;100.00;95272.19;5002823;28;20544;-69
2022/03/30 07:43:13;;;;;;;25.65;12.80;;;;;;;6.67;100.00;95274.06;4998046;28;20038;-69
2022/03/30 07:45:39;;;;;;;24.77;12.93;;;;;;;6.74;100.00;95271.19;5001508;28;20173;-70
2022/03/30 07:48:05;;;;;;;21.25;12.15;;;;;;;6.93;100.00;95267.13;4990772;28;20400;-71
2022/03/30 07:50:31;;;;;;;21.55;11.77;;;;;;;6.80;100.00;95267.53;5000316;28;20033;-69
2022/03/30 07:52:57;;;;;;;19.88;11.75;;;;;;;6.79;100.00;95270.44;5000901;28;20348;-69
2022/03/30 07:55:24;;;;;;;25.30;12.57;;;;;;;6.99;100.00;95273.25;5001842;28;20405;-70
2022/03/30 07:57:50;;;;;;;25.10;11.98;;;;;;;7.06;100.00;95273.84;5001692;28;20603;-69
2022/03/30 08:00:17;;;;;;;24.65;12.23;;;;;;;7.24;100.00;95276.13;4997685;28;20041;-69
2022/03/30 08:02:44;;;;;;;26.55;12.75;;;;;;;7.46;100.00;95262.66;4989091;28;20064;-69
2022/03/30 08:05:12;;;;;;;24.40;12.95;;;;;;;7.76;100.00;95266.56;4998676;28;20045;-69
2022/03/30 08:07:39;;;;;;;22.05;12.57;;;;;;;7.75;100.00;95272.94;5000271;28;20484;-69
2022/03/30 08:10:08;;;;;;;21.50;10.95;;;;;;;7.49;100.00;95262.16;4997556;28;20408;-71
2022/03/30 08:12:34;;;;;;;23.73;11.73;;;;;;;7.31;100.00;95278.53;5000369;28;20522;-70
2022/03/30 08:15:00;;;;;;;20.65;12.35;;;;;;;7.36;100.00;95265.28;5000447;28;20092;-70
2022/03/30 08:17:26;;;;;;;23.42;11.75;;;;;;;7.79;100.00;95266.84;4998885;28;20038;-70
2022/03/30 08:19:52;;;;;;;25.48;13.02;;;;;;;8.02;100.00;95262.97;4999194;28;20034;-69
2022/03/30 08:22:26;;;;;;;22.80;12.02;;;;;;;8.13;100.00;95260.31;4999590;28;20461;-69
2022/03/30 08:25:07;;;;;;;25.38;12.65;;;;;;;8.33;100.00;95258.53;4997473;28;20049;-69
2022/03/30 08:27:33;;;;;;;24.17;12.63;;;;;;;8.42;100.00;95261.50;4999980;28;20578;-70
2022/03/30 08:29:59;;;;;;;24.00;12.35;;;;;;;8.43;100.00;95248.97;4998947;28;20673;-69
2022/03/30 08:32:26;;;;;;;22.95;13.00;;;;;;;8.22;100.00;95250.75;4999306;28;20050;-70
2022/03/30 08:34:53;;;;;;;24.38;11.07;;;;;;;7.97;100.00;95248.81;4999660;28;20133;-71
2022/03/30 08:37:20;;;;;;;25.30;11.93;;;;;;;8.05;100.00;95256.28;4997876;28;20038;-71
2022/03/30 08:39:46;;;;;;;25.13;12.50;;;;;;;8.50;100.00;95247.66;4998588;28;20038;-69
2022/03/30 08:42:13;;;;;;;21.75;12.07;;;;;;;8.65;100.00;95250.34;4999917;28;20448;-69
2022/03/30 08:44:41;;;;;;;25.75;12.23;;;;;;;8.88;100.00;95245.56;5000727;28;20080;-69
2022/03/30 08:47:07;;;;;;;27.40;12.43;;;;;;;8.93;100.00;95238.34;4997093;28;20068;-69
2022/03/30 08:49:37;;;;;;;23.48;12.10;;;;;;;8.88;100.00;95256.22;4999381;28;20040;-69
2022/03/30 08:52:05;;;;;;;22.63;12.00;;;;;;;9.26;100.00;95248.72;4999171;28;20038;-69
2022/03/30 08:54:31;;;;;;;23.05;10.75;;;;;;;8.76;100.00;95250.34;4984064;28;20128;-69
2022/03/30 08:56:57;;;;;;;22.35;10.15;;;;;;;8.55;100.00;95247.63;5000290;28;20053;-69
2022/03/30 08:59:24;;;;;;;22.73;10.90;;;;;;;8.40;100.00;95247.63;4999175;28;20503;-71
2022/03/30 09:01:53;;;;;;;17.63;10.10;;;;;;;8.97;100.00;95245.81;5000201;28;20053;-70
2022/03/30 09:04:19;;;;;;;16.52;9.35;;;;;;;8.91;100.00;95243.13;4998546;28;20113;-70
2022/03/30 09:06:53;;;;;;;19.63;10.07;;;;;;;8.90;100.00;95244.22;5001620;28;20042;-71
2022/03/30 09:09:36;;;;;;;19.67;9.10;;;;;;;8.99;100.00;95255.16;4983491;28;20044;-71
2022/03/30 09:12:07;;;;;;;21.08;9.75;;;;;;;8.63;100.00;95251.66;4998778;28;20044;-71
2022/03/30 09:14:36;;;;;;;18.75;8.98;;;;;;;8.65;100.00;95253.00;4996578;28;20061;-69
2022/03/30 09:17:05;;;;;;;17.45;9.60;;;;;;;8.78;100.00;95257.00;5001337;28;20041;-70
2022/03/30 09:19:40;;;;;;;18.35;9.02;;;;;;;9.18;100.00;95242.88;4984293;28;20088;-69
2022/03/30 09:22:08;;;;;;;18.05;9.32;;;;;;;9.21;100.00;95241.53;5001910;28;20472;-70
2022/03/30 09:24:36;;;;;;;18.38;10.20;;;;;;;9.60;100.00;95240.91;4999027;28;20042;-69
2022/03/30 09:27:04;;;;;;;19.83;10.20;;;;;;;9.78;100.00;95241.13;4998376;28;20409;-70
2022/03/30 09:29:33;;;;;;;19.40;8.55;;;;;;;9.74;100.00;95233.94;4992251;28;20164;-70
2022/03/30 09:32:04;;;;;;;24.42;9.60;;;;;;;10.10;100.00;95233.78;4992081;28;20057;-69
2022/03/30 09:34:47;;;;;;;16.33;9.07;;;;;;;9.53;100.00;95249.22;4993271;28;20349;-69
2022/03/30 09:37:12;;;;;;;18.25;8.98;;;;;;;9.41;100.00;95240.69;4991512;28;20319;-70
2022/03/30 09:39:40;;;;;;;18.10;9.27;;;;;;;9.67;100.00;95233.44;4992983;28;20389;-70
2022/03/30 09:42:08;;;;;;;14.93;8.68;;;;;;;10.07;100.00;95235.13;4992453;28;20037;-69
2022/03/30 09:44:53;;;;;;;17.20;7.60;;;;;;;9.96;100.00;95230.88;4998627;28;20351;-70
2022/03/30 09:47:21;;;;;;;12.80;7.57;;;;;;;10.04;100.00;95230.34;4995220;28;20029;-70
2022/03/30 09:49:49;;;;;;;15.98;8.20;;;;;;;10.15;100.00;95223.06;4993211;28;20037;-69
2022/03/30 09:52:27;;;;;;;18.05;8.75;;;;;;;10.29;98.59;95222.22;4998466;28;20516;-69
2022/03/30 09:54:57;;;;;;;17.77;7.93;;;;;;;10.31;100.00;95217.38;4999425;28;20040;-69
2022/03/30 09:57:41;;;;;;;20.80;8.57;;;;;;;10.98;100.00;95216.94;4994285;28;20046;-70
2022/03/30 10:00:12;;;;;;;13.48;7.57;;;;;;;11.44;97.39;95210.06;4994341;28;20584;-71
2022/03/30 10:02:50;;;;;;;16.83;8.25;;;;;;;11.44;94.78;95215.44;4967095;28;20492;-69
2022/03/30 10:05:18;;;;;;;19.33;8.75;;;;;;;11.62;98.33;95213.09;5000659;28;20628;-69
2022/03/30 10:07:45;;;;;;;20.13;8.73;;;;;;;11.47;93.21;95210.59;5002486;28;20549;-69
2022/03/30 10:10:15;;;;;;;15.40;8.43;;;;;;;11.16;95.14;95202.84;4995170;28;20133;-69
2022/03/30 10:12:42;;;;;;;15.65;8.50;;;;;;;11.45;95.73;95202.84;4997950;28;20042;-70
2022/03/30 10:15:09;;;;;;;14.38;8.23;;;;;;;11.72;98.47;95211.09;4996275;28;20038;-69
2022/03/30 10:17:36;;;;;;;13.20;7.53;;;;;;;12.16;95.13;95202.03;4981329;28;20108;-69
2022/03/30 10:20:06;;;;;;;19.50;9.07;;;;;;;12.26;91.29;95201.09;4993573;28;20034;-71
2022/03/30 10:22:37;;;;;;;14.38;8.40;;;;;;;12.60;89.28;95195.47;4998402;28;20038;-70
2022/03/30 10:25:08;;;;;;;16.27;8.60;;;;;;;12.46;89.74;95191.97;4302363;28;10000578;-69
2022/03/30 10:27:50;;;;;;;16.85;9.13;;;;;;;12.96;87.86;95198.41;4995233;28;20065;-69
2022/03/30 10:30:24;;;;;;;14.02;8.32;;;;;;;13.34;80.59;95192.97;5000588;28;20069;-69
2022/03/30 10:32:55;;;;;;;15.40;9.15;;;;;;;13.24;81.74;95190.47;5000420;28;20077;-70
2022/03/30 10:35:20;;;;;;;19.35;9.38;;;;;;;13.92;81.30;95187.03;4998695;28;20045;-70
2022/03/30 10:37:57;;;;;;;15.85;8.82;;;;;;;14.82;71.31;95184.56;5001146;28;20071;-69
2022/03/30 10:40:25;;;;;;;19.33;8.60;;;;;;;15.52;68.42;95187.38;5000093;28;20549;-70
2022/03/30 10:42:54;;;;;;;18.73;9.13;;;;;;;15.19;61.68;95188.78;4999131;28;20195;-70
2022/03/30 10:45:28;;;;;;;21.65;9.70;;;;;;;13.55;81.18;95188.84;5001197;28;20088;-69
2022/03/30 10:48:14;;;;;;;24.02;9.18;;;;;;;13.91;77.06;95180.06;5000549;28;20041;-70
2022/03/30 10:50:57;;;;;;;16.80;9.20;;;;;;;14.52;68.30;95178.78;4999207;28;20050;-70
2022/03/30 10:53:31;;;;;;;18.65;8.93;;;;;;;16.44;62.13;95171.31;5000175;28;20536;-70
2022/03/30 10:56:09;;;;;;;14.90;8.52;;;;;;;19.39;45.32;95174.31;5001323;28;20048;-70
2022/03/30 10:58:36;;;;;;;15.40;8.57;;;;;;;20.04;43.17;95171.81;4996273;28;20481;-70
2022/03/30 11:01:19;;;;;;;18.23;9.20;;;;;;;20.57;36.91;95150.94;4973873;28;20053;-71
2022/03/30 11:04:18;;;;;;;20.05;9.85;;;;;;;21.83;34.97;95147.75;4997678;28;20037;-70
2022/03/30 11:07:13;;;;;;;15.32;7.97;;;;;;;21.38;34.06;95149.75;4964974;28;20556;-71
2022/03/30 11:09:40;;;;;;;17.52;8.50;;;;;;;22.24;32.55;95141.75;4997482;28;20046;-70
2022/03/30 11:12:14;;;;;;;15.88;8.50;;;;;;;19.95;36.49;95150.19;4994644;28;20037;-70
2022/03/30 11:14:46;;;;;;;16.90;8.82;;;;;;;20.52;35.83;95134.88;4999618;28;20117;-70
2022/03/30 11:17:30;;;;;;;13.35;8.65;;;;;;;22.88;32.22;95126.03;4996861;28;20192;-71
2022/03/30 11:19:57;;;;;;;14.05;8.18;;;;;;;23.42;31.33;95121.59;4986468;28;20042;-71
2022/03/30 11:22:29;;;;;;;16.67;9.13;;;;;;;26.21;29.61;95113.06;4999154;28;20451;-70
2022/03/30 11:25:23;;;;;;;17.13;9.05;;;;;;;28.51;24.49;95117.69;5001951;28;20120;-70
2022/03/30 11:27:58;;;;;;;16.80;8.48;;;;;;;28.80;21.97;95110.16;4996821;28;20052;-70